Autoridad de Aeronautica Civil de Panamá


metar




ESTACIONES DESCRIPCION
MPTO (M) 280100Z 09004KT 9999 FEW018 SCT090 23/22 Q1012 NOSIG=  
MPBO (M)  
MPCH (M)  
MPSA (M)=  
MPCE (M)=  
MPPN (M) 272300Z 03004KT 9999 SCT015TCU BKN080 28/22 RMK TCU W-NW/NE =  
MPSM (M) 280300Z 29003KT(E) 9999 SCT030 26/22 Q1014  
MPJE (M)  
MPPA (M) 280100Z 35003KT 9999 FEW018 25/21 Q1015=  
MPMG (M) 280300Z 32003KT 9999 FEW018 SCT070 25/21 Q1015 NOSIG  
MPDA (M) =  
MPVR (M) =  
MPWN FUERA DE SERVICIO  
MPOA (M)  
MPMF (M)  
MPEJ (M) =  


 

CLIMATICAS

MPTO

27 ENERO 2020

 

PCPN (mm)

T° MAX

T° MIN

VIENTO MAX (KT)

HORA

VIENTO PREDOM (KT)

5.53

30.8

21.0

33010KT

2000Z

W05KT

CLIMATICAS

MPMG

27- ENERO -2020

PCPN (mm)

T° MAX

T° MIN

VIENTO MAX (KT)

HORA

VIENTO PREDOM (KT)-

0.0

30.3

23.3

32012KT

1900Z

NW

 



Contador: 12774